Time;durP1;ratioP1;P1;durP2;ratioP2;P2;SDS_P1;SDS_P2;PMS_P1;PMS_P2;Temp;Humidity;BMP_temperature;BMP_pressure;BME280_temperature;BME280_humidity;BME280_pressure;Samples;Min_cycle;Max_cycle;Signal;HPM_P1;HPM_P2
2021/08/22 00:01:58;;;;;;;7.88;1.23;;;;;;;15.30;100.00;99769.69;5107924;28;20062;-74
2021/08/22 00:05:01;;;;;;;3.25;1.30;;;;;;;15.28;100.00;99763.03;5109922;28;20051;-76
2021/08/22 00:08:05;;;;;;;7.45;1.80;;;;;;;15.29;100.00;99767.38;5111457;28;20096;-76
2021/08/22 00:11:08;;;;;;;6.15;1.23;;;;;;;15.24;100.00;99760.50;5094731;28;20054;-76
2021/08/22 00:14:10;;;;;;;4.15;1.52;;;;;;;15.20;100.00;99769.16;5096100;28;20047;-76
2021/08/22 00:17:15;;;;;;;6.45;1.30;;;;;;;15.19;100.00;99766.88;5095466;28;20131;-76
2021/08/22 00:20:20;;;;;;;2.05;0.93;;;;;;;15.14;100.00;99774.00;5095809;28;20051;-76
2021/08/22 00:23:24;;;;;;;2.45;0.98;;;;;;;15.12;100.00;99770.94;5095765;28;20079;-74
2021/08/22 00:26:27;;;;;;;6.22;1.00;;;;;;;15.11;100.00;99783.44;5095414;28;20168;-73
2021/08/22 00:29:30;;;;;;;8.52;1.10;;;;;;;15.16;100.00;99788.28;5095359;28;20496;-74
2021/08/22 00:32:32;;;;;;;1.75;0.60;;;;;;;15.16;100.00;99777.06;5095355;28;20047;-74
2021/08/22 00:35:35;;;;;;;2.28;0.50;;;;;;;15.14;100.00;99784.44;5095131;28;20131;-74
2021/08/22 00:38:38;;;;;;;1.67;0.40;;;;;;;15.12;100.00;99782.16;5095159;28;20055;-76
2021/08/22 00:41:41;;;;;;;1.35;0.88;;;;;;;15.11;100.00;99786.25;5094088;28;20059;-74
2021/08/22 00:44:44;;;;;;;2.40;0.57;;;;;;;15.08;100.00;99787.25;5094878;28;20055;-74
2021/08/22 00:47:48;;;;;;;7.07;1.17;;;;;;;15.05;100.00;99779.84;5094839;28;20164;-74
2021/08/22 00:50:52;;;;;;;4.60;0.75;;;;;;;15.00;100.00;99786.25;5094992;28;20055;-74
2021/08/22 00:53:55;;;;;;;3.38;1.08;;;;;;;14.99;100.00;99786.72;5094910;28;20042;-73
2021/08/22 00:56:58;;;;;;;1.75;0.70;;;;;;;14.98;100.00;99794.41;5094667;28;20078;-73
2021/08/22 01:00:13;;;;;;;1.95;0.70;;;;;;;14.96;100.00;99788.53;5092426;28;20059;-74
2021/08/22 01:03:30;;;;;;;3.00;0.57;;;;;;;14.98;100.00;99790.81;5094947;28;20051;-73
2021/08/22 01:07:02;;;;;;;4.03;0.57;;;;;;;14.96;100.00;99799.75;5094748;28;20525;-73
2021/08/22 01:10:07;;;;;;;1.85;0.57;;;;;;;14.96;100.00;99801.78;5094755;28;20168;-73
2021/08/22 01:13:13;;;;;;;1.55;0.47;;;;;;;14.98;100.00;99805.63;5094830;28;20051;-75
2021/08/22 01:16:18;;;;;;;0.43;0.22;;;;;;;14.98;100.00;99811.22;5094293;28;20157;-76
2021/08/22 01:19:50;;;;;;;2.50;0.57;;;;;;;15.03;100.00;99807.63;5094428;28;20147;-75
2021/08/22 01:22:54;;;;;;;6.05;0.82;;;;;;;15.07;100.00;99805.34;5093872;28;20472;-76
2021/08/22 01:25:59;;;;;;;4.00;0.50;;;;;;;15.07;100.00;99807.41;5094430;28;20079;-75
2021/08/22 01:29:03;;;;;;;1.73;0.70;;;;;;;15.11;100.00;99802.31;5094401;28;20416;-74
2021/08/22 01:32:09;;;;;;;4.05;1.30;;;;;;;15.12;100.00;99809.44;5093925;28;20039;-74
2021/08/22 01:35:17;;;;;;;1.80;0.52;;;;;;;15.13;100.00;99803.34;5094294;28;20097;-74
2021/08/22 01:38:20;;;;;;;4.72;0.77;;;;;;;15.17;100.00;99803.84;5094232;28;20497;-74
2021/08/22 01:41:25;;;;;;;4.88;1.05;;;;;;;15.17;100.00;99803.84;5094434;28;20059;-73
2021/08/22 01:44:28;;;;;;;15.52;0.63;;;;;;;15.18;100.00;99802.56;5094137;28;20046;-73
2021/08/22 01:47:31;;;;;;;2.17;0.20;;;;;;;15.17;100.00;99806.66;5093793;28;20167;-74
2021/08/22 01:50:34;;;;;;;1.65;0.40;;;;;;;15.16;100.00;99812.75;5093963;28;20051;-74
2021/08/22 01:53:38;;;;;;;0.55;0.30;;;;;;;15.17;100.00;99808.69;5093807;28;20047;-74
2021/08/22 01:56:41;;;;;;;3.92;0.70;;;;;;;15.15;100.00;99809.22;5093391;28;20416;-73
2021/08/22 01:59:44;;;;;;;4.57;0.52;;;;;;;15.13;100.00;99811.75;5093149;28;20051;-73
2021/08/22 02:02:58;;;;;;;2.35;0.32;;;;;;;15.14;100.00;99818.88;5093671;28;20047;-74
2021/08/22 02:06:15;;;;;;;3.85;0.28;;;;;;;15.10;100.00;99818.38;5093900;28;20055;-74
2021/08/22 02:09:25;;;;;;;1.83;0.50;;;;;;;15.04;100.00;99817.59;5093468;28;20042;-73
2021/08/22 02:12:29;;;;;;;0.90;0.30;;;;;;;15.02;100.00;99822.19;5096544;28;20404;-74
2021/08/22 02:15:41;;;;;;;3.95;0.50;;;;;;;15.00;100.00;99824.72;5093153;28;20051;-73
2021/08/22 02:18:45;;;;;;;2.05;0.32;;;;;;;14.94;100.00;99816.28;5092947;28;20108;-74
2021/08/22 02:21:49;;;;;;;1.17;0.45;;;;;;;14.89;100.00;99817.06;5093232;28;20465;-73
2021/08/22 02:24:52;;;;;;;1.40;0.60;;;;;;;14.89;100.00;99819.88;5093367;28;20170;-73
2021/08/22 02:27:57;;;;;;;1.13;0.38;;;;;;;14.88;100.00;99823.16;5093289;28;20136;-73
2021/08/22 02:31:00;;;;;;;3.38;1.27;;;;;;;14.81;100.00;99824.41;5093072;28;20058;-73
2021/08/22 02:34:03;;;;;;;0.93;0.32;;;;;;;14.76;100.00;99827.97;5093025;28;20657;-74
2021/08/22 02:37:06;;;;;;;1.13;0.38;;;;;;;14.72;100.00;99826.69;5092960;28;20127;-73
2021/08/22 02:40:09;;;;;;;2.50;0.95;;;;;;;14.69;100.00;99831.25;5093202;28;20067;-74
2021/08/22 02:43:12;;;;;;;4.18;1.02;;;;;;;14.62;100.00;99828.94;5093069;28;20086;-73
2021/08/22 02:46:15;;;;;;;5.45;0.95;;;;;;;14.55;100.00;99834.28;5092646;28;20487;-73
2021/08/22 02:49:17;;;;;;;2.08;0.63;;;;;;;14.52;100.00;99836.03;5092784;28;20412;-74
2021/08/22 02:52:20;;;;;;;1.65;0.38;;;;;;;14.51;100.00;99840.09;5092987;28;20051;-74
2021/08/22 02:55:23;;;;;;;1.27;0.60;;;;;;;14.52;100.00;99841.66;5093039;28;20051;-74
2021/08/22 02:58:26;;;;;;;2.35;0.60;;;;;;;14.49;100.00;99842.63;5092986;28;20047;-73
2021/08/22 03:01:29;;;;;;;3.25;0.90;;;;;;;14.54;100.00;99849.53;5092873;28;20046;-73
2021/08/22 03:04:32;;;;;;;4.55;1.20;;;;;;;14.52;100.00;99847.25;5092858;28;20050;-73
2021/08/22 03:07:35;;;;;;;3.58;1.23;;;;;;;14.58;100.00;99845.22;5092526;28;20178;-74
2021/08/22 03:10:38;;;;;;;2.60;0.55;;;;;;;14.61;100.00;99849.84;5093009;28;20131;-73
2021/08/22 03:13:40;;;;;;;8.65;1.15;;;;;;;14.66;100.00;99843.47;5092811;28;20554;-73
2021/08/22 03:16:43;;;;;;;2.08;0.90;;;;;;;14.72;100.00;99844.28;5092397;28;20089;-73
2021/08/22 03:19:46;;;;;;;1.77;0.63;;;;;;;14.74;100.00;99852.94;5092412;28;20046;-73
2021/08/22 03:22:49;;;;;;;3.60;0.60;;;;;;;14.74;100.00;99846.56;5092592;28;20091;-73
2021/08/22 03:25:52;;;;;;;4.55;0.88;;;;;;;14.76;100.00;99856.00;5092581;28;20047;-74
2021/08/22 03:28:54;;;;;;;2.00;0.45;;;;;;;14.76;100.00;99856.00;5092642;28;20480;-73
2021/08/22 03:31:57;;;;;;;0.82;0.35;;;;;;;14.76;100.00;99861.63;5092509;28;20595;-73
2021/08/22 03:35:00;;;;;;;3.75;1.00;;;;;;;14.78;100.00;99859.09;5092650;28;20469;-73
2021/08/22 03:38:03;;;;;;;3.08;0.88;;;;;;;14.80;100.00;99855.75;5092474;28;20051;-73
2021/08/22 03:41:06;;;;;;;6.72;0.80;;;;;;;14.82;100.00;99861.63;5092490;28;20043;-73
2021/08/22 03:44:09;;;;;;;4.70;1.73;;;;;;;14.80;100.00;99862.16;5092799;28;20089;-73
2021/08/22 03:47:12;;;;;;;2.63;0.60;;;;;;;14.80;100.00;99862.16;5095980;28;20123;-73
2021/08/22 03:50:16;;;;;;;2.10;0.98;;;;;;;14.80;100.00;99867.75;5095982;28;20063;-73
2021/08/22 03:53:18;;;;;;;4.10;0.95;;;;;;;14.79;100.00;99860.59;5095632;28;20127;-73
2021/08/22 03:56:21;;;;;;;5.97;1.70;;;;;;;14.81;100.00;99866.47;5095737;28;20054;-74
2021/08/22 03:59:24;;;;;;;2.47;1.05;;;;;;;14.79;100.00;99863.41;5095896;28;20481;-74
2021/08/22 04:02:27;;;;;;;5.22;0.95;;;;;;;14.78;100.00;99870.28;5095432;28;20097;-74
2021/08/22 04:05:30;;;;;;;4.05;1.48;;;;;;;14.76;100.00;99864.44;5096209;28;20054;-73
2021/08/22 04:08:35;;;;;;;5.70;1.38;;;;;;;14.77;100.00;99863.13;5095580;28;20508;-74
2021/08/22 04:11:39;;;;;;;11.35;2.15;;;;;;;14.75;100.00;99871.28;5095887;28;20046;-73
2021/08/22 04:14:42;;;;;;;9.05;2.08;;;;;;;14.74;100.00;99864.16;5095229;28;20570;-73
2021/08/22 04:17:45;;;;;;;3.08;1.05;;;;;;;14.74;100.00;99872.56;5099108;28;20504;-74
2021/08/22 04:20:48;;;;;;;4.60;1.60;;;;;;;14.74;100.00;99875.38;5094940;28;20059;-73
2021/08/22 04:23:51;;;;;;;2.83;0.98;;;;;;;14.73;100.00;99879.44;5095801;28;20044;-73
2021/08/22 04:26:54;;;;;;;4.45;1.00;;;;;;;14.71;100.00;99870.78;5095451;28;20120;-73
2021/08/22 04:29:57;;;;;;;4.93;1.38;;;;;;;14.75;100.00;99876.16;5095433;28;20066;-73
2021/08/22 04:33:00;;;;;;;21.27;1.65;;;;;;;14.74;100.00;99891.44;5095698;28;20090;-73
2021/08/22 04:36:03;;;;;;;2.20;0.50;;;;;;;14.75;100.00;99876.91;5095463;28;20074;-73
2021/08/22 04:39:06;;;;;;;0.40;0.40;;;;;;;14.75;100.00;99887.38;5095425;28;20055;-73
2021/08/22 04:42:09;;;;;;;0.47;0.10;;;;;;;14.76;100.00;99888.88;5095291;28;20055;-73
2021/08/22 04:45:12;;;;;;;4.70;0.98;;;;;;;14.78;100.00;99883.53;5095441;28;20055;-73
2021/08/22 04:48:14;;;;;;;1.75;0.85;;;;;;;14.81;100.00;99886.09;5095049;28;20051;-73
2021/08/22 04:51:17;;;;;;;3.00;0.98;;;;;;;14.82;100.00;99887.63;5095267;28;20092;-74
2021/08/22 04:54:22;;;;;;;1.13;0.38;;;;;;;14.87;100.00;99892.50;5095200;28;20082;-73
2021/08/22 04:57:25;;;;;;;2.47;0.63;;;;;;;14.84;100.00;99892.72;5095080;28;20162;-73
2021/08/22 05:00:27;;;;;;;2.00;0.60;;;;;;;14.87;100.00;99900.16;5095105;28;20070;-73
2021/08/22 05:03:30;;;;;;;2.95;0.52;;;;;;;14.88;100.00;99899.63;5094920;28;20480;-73
2021/08/22 05:06:33;;;;;;;2.10;0.93;;;;;;;14.90;100.00;99908.31;5094728;28;20128;-73
2021/08/22 05:09:36;;;;;;;4.25;0.93;;;;;;;14.93;100.00;99915.72;5093948;28;20546;-73
2021/08/22 05:12:39;;;;;;;3.92;0.65;;;;;;;14.97;100.00;99915.47;5094763;28;20444;-73
2021/08/22 05:15:42;;;;;;;3.30;0.60;;;;;;;14.96;100.00;99923.13;5094405;28;20136;-74
2021/08/22 05:18:45;;;;;;;3.95;0.95;;;;;;;14.97;100.00;99912.66;5094498;28;20047;-73
2021/08/22 05:21:47;;;;;;;8.50;1.08;;;;;;;15.01;100.00;99921.59;5094593;28;20096;-74
2021/08/22 05:24:50;;;;;;;2.95;1.08;;;;;;;15.00;100.00;99932.06;5094695;28;20389;-73
2021/08/22 05:27:53;;;;;;;3.15;1.00;;;;;;;15.03;100.00;99928.25;5094758;28;20043;-74
2021/08/22 05:30:56;;;;;;;0.55;0.35;;;;;;;15.05;100.00;99934.13;5094572;28;20046;-74
2021/08/22 05:33:59;;;;;;;4.60;1.63;;;;;;;15.06;100.00;99941.28;5093595;28;20051;-74
2021/08/22 05:37:02;;;;;;;2.75;0.47;;;;;;;15.08;100.00;99944.34;5093673;28;20166;-75
2021/08/22 05:40:05;;;;;;;3.45;0.73;;;;;;;15.09;100.00;99945.09;5093714;28;20090;-74
2021/08/22 05:43:08;;;;;;;3.70;0.80;;;;;;;15.12;100.00;99949.69;5094171;28;20101;-74
2021/08/22 05:46:11;;;;;;;1.95;0.70;;;;;;;15.12;100.00;99961.69;5093865;28;20055;-74
2021/08/22 05:49:15;;;;;;;4.80;1.42;;;;;;;15.13;100.00;99963.22;5094003;28;20567;-74
2021/08/22 05:52:18;;;;;;;2.85;0.70;;;;;;;15.14;100.00;99969.59;5094001;28;20047;-73
2021/08/22 05:55:20;;;;;;;4.13;1.10;;;;;;;15.17;100.00;99974.22;5094300;28;20050;-73
2021/08/22 05:58:24;;;;;;;0.68;0.32;;;;;;;15.17;100.00;99980.59;5093749;28;20051;-75
2021/08/22 06:01:27;;;;;;;3.30;1.27;;;;;;;15.17;100.00;99980.59;5093430;28;20573;-74
2021/08/22 06:04:31;;;;;;;3.38;0.45;;;;;;;15.20;100.00;99985.19;5093803;28;20055;-73
2021/08/22 06:07:34;;;;;;;1.15;1.00;;;;;;;15.24;100.00;99984.19;5092670;28;20047;-74
2021/08/22 06:10:39;;;;;;;2.88;0.70;;;;;;;15.24;100.00;99992.59;5093574;28;20531;-74
2021/08/22 06:13:42;;;;;;;2.45;0.95;;;;;;;15.24;100.00;100001.00;5093670;28;20055;-73
2021/08/22 06:16:44;;;;;;;7.22;1.15;;;;;;;15.27;100.00;100008.44;5093219;28;20039;-73
2021/08/22 06:19:47;;;;;;;5.03;0.68;;;;;;;15.30;100.00;100013.03;5093126;28;20054;-73
2021/08/22 06:22:50;;;;;;;1.15;0.63;;;;;;;15.37;100.00;100018.16;5096790;28;20401;-74
2021/08/22 06:25:53;;;;;;;2.42;0.63;;;;;;;15.43;100.00;100016.13;5094103;28;20097;-75
2021/08/22 06:28:56;;;;;;;1.48;0.52;;;;;;;15.47;100.00;100025.09;5093439;28;20051;-75
2021/08/22 06:31:59;;;;;;;1.05;0.68;;;;;;;15.50;100.00;100018.50;5092970;28;20093;-75
2021/08/22 06:35:02;;;;;;;6.07;0.55;;;;;;;15.54;100.00;100024.63;5093575;28;20417;-73
2021/08/22 06:38:05;;;;;;;4.80;0.85;;;;;;;15.56;100.00;100022.06;5092308;28;20421;-75
2021/08/22 06:41:08;;;;;;;3.22;0.57;;;;;;;15.59;100.00;100033.06;5093080;28;20051;-75
2021/08/22 06:44:13;;;;;;;1.48;0.77;;;;;;;15.55;100.00;100037.41;5092894;28;20634;-74
2021/08/22 06:47:15;;;;;;;3.28;0.95;;;;;;;15.56;100.00;100039.69;5092751;28;20047;-74
2021/08/22 06:50:24;;;;;;;5.53;1.25;;;;;;;15.56;100.00;100038.91;5092893;28;20569;-75
2021/08/22 06:53:26;;;;;;;4.88;0.75;;;;;;;15.58;100.00;100048.38;5093320;28;20455;-75
2021/08/22 06:56:31;;;;;;;4.13;1.13;;;;;;;15.60;100.00;100045.81;5093083;28;20083;-74
2021/08/22 06:59:34;;;;;;;2.65;0.70;;;;;;;15.59;100.00;100046.34;5092814;28;20051;-75
2021/08/22 07:02:37;;;;;;;1.17;1.00;;;;;;;15.69;100.00;100061.69;5092894;28;20051;-74
2021/08/22 07:05:40;;;;;;;3.50;0.73;;;;;;;15.71;100.00;100064.75;5092704;28;20505;-74
2021/08/22 07:08:43;;;;;;;4.63;1.00;;;;;;;15.71;100.00;100061.94;5092591;28;20051;-74
2021/08/22 07:11:47;;;;;;;2.80;1.08;;;;;;;15.63;100.00;100066.50;5092504;28;20512;-74
2021/08/22 07:14:50;;;;;;;4.35;1.33;;;;;;;15.62;100.00;100076.97;5093366;28;20051;-75
2021/08/22 07:17:53;;;;;;;12.25;1.02;;;;;;;15.61;100.00;100074.69;5092404;28;20104;-74
2021/08/22 07:20:56;;;;;;;2.45;0.75;;;;;;;15.69;100.00;100084.91;5095881;28;20385;-74
2021/08/22 07:24:00;;;;;;;1.92;0.65;;;;;;;15.71;100.00;100087.22;5097185;28;20116;-74
2021/08/22 07:27:03;;;;;;;1.40;0.47;;;;;;;15.71;100.00;100084.41;5092257;28;20524;-74
2021/08/22 07:30:07;;;;;;;4.65;0.90;;;;;;;15.77;100.00;100104.84;5102247;28;20047;-74
2021/08/22 07:33:10;;;;;;;4.93;0.38;;;;;;;15.86;100.00;100107.44;5116729;28;20043;-74
2021/08/22 07:36:13;;;;;;;3.30;0.63;;;;;;;15.92;100.00;100108.22;5116684;28;20058;-74
2021/08/22 07:39:15;;;;;;;5.55;0.98;;;;;;;15.95;100.00;100115.63;5116121;28;20112;-74
2021/08/22 07:42:18;;;;;;;0.70;0.43;;;;;;;15.95;100.00;100121.25;5117009;28;20042;-74
2021/08/22 07:45:21;;;;;;;1.75;0.25;;;;;;;15.97;100.00;100129.94;5116849;28;20074;-75
2021/08/22 07:48:24;;;;;;;13.25;0.75;;;;;;;16.05;100.00;100133.78;5116579;28;20042;-75
2021/08/22 07:51:27;;;;;;;1.77;0.43;;;;;;;16.12;100.00;100138.91;5116584;28;20495;-75
2021/08/22 07:54:30;;;;;;;3.08;0.80;;;;;;;16.22;100.00;100145.84;5117021;28;20385;-74
2021/08/22 07:57:33;;;;;;;0.40;0.10;;;;;;;16.35;100.00;100143.31;5116608;28;20105;-74
2021/08/22 08:00:36;;;;;;;4.00;0.32;;;;;;;16.47;100.00;100138.47;5116509;28;20108;-74
2021/08/22 08:03:38;;;;;;;2.00;0.50;;;;;;;16.64;100.00;100147.72;5115346;28;20043;-75
2021/08/22 08:06:41;;;;;;;0.98;0.20;;;;;;;16.78;100.00;100143.91;5116542;28;20047;-75
2021/08/22 08:09:44;;;;;;;0.63;0.10;;;;;;;16.86;100.00;100146.97;5116099;28;20046;-75
2021/08/22 08:12:48;;;;;;;3.70;0.50;;;;;;;16.97;100.00;100152.59;5116424;28;20104;-74
2021/08/22 08:15:50;;;;;;;2.72;0.57;;;;;;;17.10;100.00;100150.78;5116028;28;20096;-74
2021/08/22 08:18:56;;;;;;;0.88;0.25;;;;;;;17.10;100.00;100152.84;5116373;28;20129;-75
2021/08/22 08:21:58;;;;;;;0.85;0.10;;;;;;;17.12;100.00;100153.88;5116681;28;20042;-75
2021/08/22 08:25:02;;;;;;;1.17;0.17;;;;;;;17.03;100.00;100156.94;5116599;28;20046;-75
2021/08/22 08:28:05;;;;;;;1.42;0.22;;;;;;;17.04;100.00;100163.34;5119182;28;20054;-75
2021/08/22 08:31:08;;;;;;;0.30;0.20;;;;;;;17.08;100.00;100169.47;5118070;28;20050;-75
2021/08/22 08:34:11;;;;;;;3.45;0.47;;;;;;;17.09;100.00;100176.63;5115477;28;20092;-76
2021/08/22 08:37:14;;;;;;;1.10;0.45;;;;;;;17.16;100.00;100181.75;5114658;28;20405;-75
2021/08/22 08:40:21;;;;;;;0.08;0.00;;;;;;;17.16;100.00;100176.09;5115546;28;20100;-75
2021/08/22 08:43:24;;;;;;;0.65;0.10;;;;;;;17.27;100.00;100176.88;5115912;28;20150;-75
2021/08/22 08:46:49;;;;;;;1.98;0.30;;;;;;;17.31;100.00;100185.81;5114827;27;20127;-74
2021/08/22 08:50:04;;;;;;;0.93;0.38;;;;;;;17.69;100.00;100189.09;5115502;28;20042;-74
2021/08/22 08:53:10;;;;;;;1.17;0.43;;;;;;;17.86;100.00;100190.59;5115724;28;20104;-76
2021/08/22 08:56:17;;;;;;;1.27;0.10;;;;;;;17.74;100.00;100191.88;5115322;28;20042;-75
2021/08/22 08:59:20;;;;;;;1.35;0.30;;;;;;;17.65;100.00;100197.81;5115441;28;20073;-73
2021/08/22 09:02:23;;;;;;;1.08;0.08;;;;;;;17.50;100.00;100199.38;5114905;28;20050;-73
2021/08/22 09:05:26;;;;;;;0.20;0.10;;;;;;;17.39;100.00;100211.38;5114823;28;20487;-74
2021/08/22 09:08:40;;;;;;;0.10;0.00;;;;;;;17.36;100.00;100212.44;5114722;28;20101;-77
2021/08/22 09:12:21;;;;;;;0.10;0.10;;;;;;;17.31;100.00;100213.19;5114783;28;20512;-75
2021/08/22 09:15:58;;;;;;;0.45;0.17;;;;;;;17.34;100.00;100215.00;5114760;28;20058;-75
2021/08/22 09:19:39;;;;;;;0.93;0.30;;;;;;;17.24;100.00;100224.97;5096646;28;20047;-75
2021/08/22 09:23:20;;;;;;;0.50;0.10;;;;;;;17.18;100.00;100229.84;5094802;28;20054;-75
2021/08/22 09:26:49;;;;;;;0.22;0.10;;;;;;;17.02;100.00;100234.19;5094865;28;20063;-75
2021/08/22 09:30:20;;;;;;;1.42;0.40;;;;;;;16.97;100.00;100242.63;5090109;28;20062;-75
2021/08/22 09:33:41;;;;;;;2.10;0.57;;;;;;;16.89;100.00;100244.41;5093837;28;20054;-75
2021/08/22 09:37:06;;;;;;;1.02;0.40;;;;;;;16.98;100.00;100249.81;5092849;28;20271;-73
2021/08/22 09:40:36;;;;;;;3.10;0.68;;;;;;;17.09;100.00;100249.78;5093801;28;20047;-72
2021/08/22 09:44:31;;;;;;;0.98;0.10;;;;;;;17.38;100.00;100252.09;5093210;28;20055;-73
2021/08/22 09:47:53;;;;;;;0.43;0.10;;;;;;;17.55;100.00;100255.69;5093507;28;20105;-73
2021/08/22 09:51:11;;;;;;;0.40;0.20;;;;;;;17.55;100.00;100264.16;5093395;28;20067;-74
2021/08/22 09:54:51;;;;;;;1.38;0.40;;;;;;;17.55;100.00;100264.16;5093888;28;20154;-73
2021/08/22 09:58:35;;;;;;;0.20;0.13;;;;;;;17.68;100.00;100267.19;5093493;28;20050;-74
2021/08/22 10:02:00;;;;;;;2.45;0.68;;;;;;;18.02;100.00;100268.66;5093543;28;20062;-74
2021/08/22 10:05:19;;;;;;;5.97;0.65;;;;;;;18.14;100.00;100270.16;5092514;28;20132;-74
2021/08/22 10:08:28;;;;;;;1.90;0.17;;;;;;;18.00;100.00;100270.44;5092165;28;20055;-73
2021/08/22 10:11:34;;;;;;;0.32;0.28;;;;;;;17.85;100.00;100273.56;5093215;28;20139;-73
2021/08/22 10:14:40;;;;;;;0.98;0.20;;;;;;;17.85;100.00;100275.63;5093394;28;20500;-73
2021/08/22 10:17:50;;;;;;;0.75;0.50;;;;;;;17.86;100.00;100277.94;5092849;28;20047;-73
2021/08/22 10:21:07;;;;;;;1.25;0.35;;;;;;;18.01;100.00;100284.03;5092988;28;20085;-73
2021/08/22 10:24:11;;;;;;;0.10;0.10;;;;;;;18.23;100.00;100283.22;5092907;28;20374;-75
2021/08/22 10:27:29;;;;;;;0.10;0.10;;;;;;;18.32;100.00;100280.06;5092929;28;20139;-74
2021/08/22 10:30:42;;;;;;;4.32;0.20;;;;;;;18.46;100.00;100278.25;5095196;28;20096;-74
2021/08/22 10:34:13;;;;;;;0.10;0.03;;;;;;;18.54;100.00;100282.84;5092864;28;20047;-74
2021/08/22 10:37:27;;;;;;;0.68;0.08;;;;;;;18.63;100.00;100293.03;5092928;28;20058;-73
2021/08/22 10:40:32;;;;;;;1.65;0.15;;;;;;;18.80;100.00;100297.31;5092827;28;20038;-72
2021/08/22 10:43:38;;;;;;;0.65;0.10;;;;;;;19.05;100.00;100294.59;5092600;28;20047;-72
2021/08/22 10:46:45;;;;;;;0.95;0.38;;;;;;;19.07;100.00;100295.63;5092331;28;20055;-73
2021/08/22 10:49:54;;;;;;;0.43;0.32;;;;;;;19.26;100.00;100293.69;5092736;28;20139;-72
2021/08/22 10:53:26;;;;;;;1.08;0.38;;;;;;;19.35;100.00;100287.72;5092777;28;20446;-73
2021/08/22 10:56:34;;;;;;;0.20;0.03;;;;;;;19.37;100.00;100292.84;5091855;28;20101;-73
2021/08/22 11:00:15;;;;;;;1.77;0.32;;;;;;;19.07;100.00;100289.19;5091917;28;20105;-73
2021/08/22 11:03:22;;;;;;;1.38;0.10;;;;;;;19.12;100.00;100286.34;5092021;28;20424;-73
2021/08/22 11:06:25;;;;;;;0.75;0.20;;;;;;;19.22;100.00;100295.25;5091552;28;20113;-73
2021/08/22 11:09:38;;;;;;;0.10;0.10;;;;;;;19.32;100.00;100302.09;5092394;28;20090;-73
2021/08/22 11:12:42;;;;;;;0.22;0.10;;;;;;;19.40;100.00;100281.28;5092619;28;20435;-74
2021/08/22 11:15:46;;;;;;;0.30;0.00;;;;;;;19.71;100.00;100293.34;5092227;28;20043;-74
2021/08/22 11:18:49;;;;;;;0.68;0.10;;;;;;;19.67;100.00;100291.56;5092208;28;20155;-72
2021/08/22 11:21:52;;;;;;;0.82;0.20;;;;;;;19.60;100.00;100283.66;5090888;28;20071;-73
2021/08/22 11:24:58;;;;;;;1.65;0.30;;;;;;;19.75;100.00;100288.16;5092364;28;20058;-73
2021/08/22 11:28:12;;;;;;;2.28;0.10;;;;;;;19.70;100.00;100291.78;5092166;28;20446;-73
2021/08/22 11:31:15;;;;;;;0.40;0.10;;;;;;;20.19;100.00;100299.75;5092245;28;20092;-72
2021/08/22 11:34:25;;;;;;;1.00;0.10;;;;;;;20.12;100.00;100308.09;5092468;28;20093;-73
2021/08/22 11:37:31;;;;;;;5.07;0.40;;;;;;;19.90;100.00;100311.13;5092427;28;20109;-73
2021/08/22 11:40:35;;;;;;;3.50;0.00;;;;;;;19.91;100.00;100319.09;5092359;28;20078;-74
2021/08/22 11:43:38;;;;;;;0.13;0.10;;;;;;;20.02;100.00;100313.31;5092305;28;20102;-73
2021/08/22 11:46:41;;;;;;;0.85;0.10;;;;;;;20.03;100.00;100314.84;5091988;28;20189;-74
2021/08/22 11:49:45;;;;;;;0.20;0.20;;;;;;;19.71;100.00;100321.59;5091952;28;20050;-74
2021/08/22 11:52:51;;;;;;;2.00;0.20;;;;;;;19.57;100.00;100321.47;5091934;28;20055;-73
2021/08/22 11:55:54;;;;;;;0.17;0.00;;;;;;;19.55;100.00;100320.44;5092253;28;20181;-74
2021/08/22 11:58:57;;;;;;;1.00;0.10;;;;;;;19.97;100.00;100316.19;5092193;28;20055;-73
2021/08/22 12:02:17;;;;;;;1.15;0.10;;;;;;;20.35;100.00;100317.88;5092424;28;20397;-73
2021/08/22 12:05:22;;;;;;;0.00;0.00;;;;;;;20.52;100.00;100318.44;5092405;28;20098;-73
2021/08/22 12:08:27;;;;;;;1.40;0.30;;;;;;;20.51;100.00;100319.72;5095499;28;20644;-73
2021/08/22 12:11:33;;;;;;;0.20;0.00;;;;;;;20.35;100.00;100332.00;5095745;28;20492;-73
2021/08/22 12:14:37;;;;;;;1.50;0.10;;;;;;;20.28;100.00;100324.13;5095867;28;20093;-74
2021/08/22 12:17:40;;;;;;;3.47;0.00;;;;;;;20.33;100.00;100329.72;5095307;28;20152;-74
2021/08/22 12:20:46;;;;;;;0.38;0.20;;;;;;;20.11;100.00;100335.59;5095807;28;20067;-74
2021/08/22 12:23:51;;;;;;;3.83;0.20;;;;;;;20.06;100.00;100346.94;5095479;28;20136;-74
2021/08/22 12:26:56;;;;;;;2.10;0.20;;;;;;;20.59;100.00;100343.31;5095451;28;20047;-75
2021/08/22 12:30:10;;;;;;;0.50;0.13;;;;;;;20.66;100.00;100336.28;5095453;28;20484;-73
2021/08/22 12:33:31;;;;;;;2.30;0.55;;;;;;;20.80;100.00;100341.47;5098204;28;20070;-74
2021/08/22 12:36:36;;;;;;;0.25;0.20;;;;;;;20.62;100.00;100347.13;5094984;28;20177;-74
2021/08/22 12:39:40;;;;;;;0.20;0.10;;;;;;;20.69;100.00;100358.59;5095227;28;20135;-77
2021/08/22 12:42:43;;;;;;;0.50;0.22;;;;;;;21.12;100.00;100350.06;5095333;28;20489;-73
2021/08/22 12:45:46;;;;;;;0.65;0.10;;;;;;;21.05;100.00;100359.94;5094664;28;20083;-73
2021/08/22 12:48:49;;;;;;;0.75;0.10;;;;;;;20.65;100.00;100358.16;5094477;28;20066;-73
2021/08/22 12:52:00;;;;;;;0.10;0.00;;;;;;;20.42;100.00;100371.03;5094523;28;20181;-73
2021/08/22 12:55:03;;;;;;;1.48;0.20;;;;;;;20.71;100.00;100358.84;5094673;28;20039;-73
2021/08/22 12:58:06;;;;;;;0.10;0.00;;;;;;;20.29;100.00;100356.78;5093916;28;20071;-72
2021/08/22 13:01:09;;;;;;;0.22;0.17;;;;;;;19.97;100.00;100378.38;5092448;28;20051;-73
2021/08/22 13:04:15;;;;;;;0.95;0.10;;;;;;;19.57;100.00;100380.78;5095305;28;20059;-73
2021/08/22 13:07:18;;;;;;;4.53;0.25;;;;;;;19.35;100.00;100380.94;5094819;28;20774;-73
2021/08/22 13:10:21;;;;;;;0.47;0.28;;;;;;;19.31;100.00;100385.31;5095038;28;20519;-74
2021/08/22 13:13:24;;;;;;;2.63;0.20;;;;;;;19.18;100.00;100387.94;5091949;28;20085;-74
2021/08/22 13:16:27;;;;;;;1.13;0.15;;;;;;;19.02;100.00;100392.41;5094261;28;20132;-74
2021/08/22 13:19:30;;;;;;;0.10;0.10;;;;;;;19.14;100.00;100393.13;5094360;28;20059;-73
2021/08/22 13:22:33;;;;;;;0.47;0.13;;;;;;;19.51;100.00;100399.06;5094743;28;20132;-74
2021/08/22 13:25:36;;;;;;;0.30;0.20;;;;;;;19.83;100.00;100390.84;5094714;28;20100;-75
2021/08/22 13:28:39;;;;;;;1.00;0.63;;;;;;;20.06;100.00;100380.88;5095002;28;20097;-74
2021/08/22 13:31:44;;;;;;;0.20;0.10;;;;;;;20.19;100.00;100386.66;5093938;28;20059;-75
2021/08/22 13:34:47;;;;;;;4.28;0.20;;;;;;;20.28;100.00;100386.34;5094773;28;20554;-75
2021/08/22 13:37:51;;;;;;;0.68;0.20;;;;;;;20.30;100.00;100389.41;5094225;28;20054;-75
2021/08/22 13:41:00;;;;;;;0.10;0.10;;;;;;;20.51;100.00;100386.88;5094031;28;20047;-75
2021/08/22 13:44:04;;;;;;;;;;;;;;;20.67;100.00;100381.03;5094587;28;20051;-75
2021/08/22 13:47:07;;;;;;;0.80;0.30;;;;;;;20.62;100.00;100392.41;5093554;28;20026;-75
2021/08/22 13:50:10;;;;;;;0.10;0.00;;;;;;;20.54;100.00;100386.56;5093642;28;20043;-74
2021/08/22 13:53:13;;;;;;;1.73;0.15;;;;;;;20.39;100.00;100397.56;5094635;28;20051;-75
2021/08/22 13:56:16;;;;;;;2.05;0.20;;;;;;;20.29;100.00;100387.91;5093684;28;20047;-75
2021/08/22 13:59:19;;;;;;;0.10;0.00;;;;;;;20.02;100.00;100391.72;5093852;28;20054;-75
2021/08/22 14:02:22;;;;;;;1.88;0.20;;;;;;;19.86;100.00;100401.13;5093430;28;20047;-74
2021/08/22 14:05:25;;;;;;;0.85;0.20;;;;;;;19.78;100.00;100400.91;5094585;28;20059;-75
2021/08/22 14:08:29;;;;;;;0.57;0.20;;;;;;;20.00;100.00;100402.78;5093639;28;20173;-75
2021/08/22 14:11:32;;;;;;;0.25;0.22;;;;;;;20.59;100.00;100394.25;5093630;28;20047;-75
2021/08/22 14:14:35;;;;;;;0.65;0.20;;;;;;;20.71;100.00;100395.63;5093483;28;20105;-75
2021/08/22 14:17:39;;;;;;;1.48;0.10;;;;;;;20.59;100.00;100399.91;5093324;28;20067;-74
2021/08/22 14:20:42;;;;;;;1.30;0.10;;;;;;;20.76;100.00;100397.66;5092745;28;20108;-74
2021/08/22 14:23:45;;;;;;;2.08;0.30;;;;;;;20.80;100.00;100400.94;5093514;28;20047;-73